Time;durP1;ratioP1;P1;durP2;ratioP2;P2;SDS_P1;SDS_P2;PMS_P1;PMS_P2;Temp;Humidity;BMP_temperature;BMP_pressure;BME280_temperature;BME280_humidity;BME280_pressure;Samples;Min_cycle;Max_cycle;Signal;HPM_P1;HPM_P2
2023/04/22 00:01:00;;;;;;;10.23;9.13;;;;;;;11.54;70.74;95625.31;5009529;28;20188;-68
2023/04/22 00:03:26;;;;;;;11.00;8.70;;;;;;;11.61;69.96;95624.00;5009081;28;20236;-68
2023/04/22 00:05:52;;;;;;;12.93;10.80;;;;;;;11.64;70.16;95620.34;5008721;28;20250;-68
2023/04/22 00:08:17;;;;;;;13.73;10.90;;;;;;;11.57;69.96;95624.28;5008805;28;20415;-69
2023/04/22 00:10:42;;;;;;;12.47;10.83;;;;;;;11.61;69.56;95625.78;5008906;28;20272;-68
2023/04/22 00:13:08;;;;;;;13.70;10.27;;;;;;;11.56;69.52;95633.13;5009124;28;20945;-68
2023/04/22 00:15:33;;;;;;;11.87;10.63;;;;;;;11.49;69.08;95635.25;5009374;28;20602;-70
2023/04/22 00:17:59;;;;;;;11.13;10.03;;;;;;;11.40;69.74;95634.03;5009257;28;20182;-70
2023/04/22 00:20:24;;;;;;;12.30;10.23;;;;;;;11.38;69.48;95635.06;5009188;28;20845;-69
2023/04/22 00:22:50;;;;;;;13.50;10.50;;;;;;;11.32;69.48;95640.69;5007131;28;20204;-68
2023/04/22 00:25:15;;;;;;;10.67;9.67;;;;;;;11.29;68.98;95638.22;5008610;28;20164;-68
2023/04/22 00:27:41;;;;;;;10.40;9.30;;;;;;;11.25;69.39;95631.47;5008194;28;20188;-67
2023/04/22 00:30:08;;;;;;;11.07;9.27;;;;;;;11.42;68.89;95628.69;5008290;28;20242;-69
2023/04/22 00:32:33;;;;;;;10.30;9.20;;;;;;;11.33;69.13;95627.44;5007816;28;20204;-69
2023/04/22 00:34:59;;;;;;;11.00;9.90;;;;;;;11.37;68.73;95630.75;5008101;28;20478;-69
2023/04/22 00:37:24;;;;;;;12.63;10.13;;;;;;;11.29;69.53;95640.84;5008036;28;20176;-68
2023/04/22 00:39:50;;;;;;;10.37;9.47;;;;;;;11.30;69.39;95632.88;5008110;28;20260;-68
2023/04/22 00:42:16;;;;;;;16.50;9.80;;;;;;;11.26;69.49;95631.38;5008302;28;20211;-69
2023/04/22 00:44:41;;;;;;;10.80;9.70;;;;;;;11.18;69.68;95642.31;5008116;28;20251;-68
2023/04/22 00:47:08;;;;;;;12.03;9.40;;;;;;;11.28;69.46;95636.53;5008744;28;20176;-68
2023/04/22 00:49:35;;;;;;;12.20;9.00;;;;;;;11.33;69.01;95640.56;5008320;28;20192;-68
2023/04/22 00:52:01;;;;;;;11.00;9.87;;;;;;;11.21;69.47;95636.88;5008267;28;20759;-69
2023/04/22 00:54:27;;;;;;;11.17;9.97;;;;;;;11.19;69.59;95632.66;5008192;28;20408;-69
2023/04/22 00:56:55;;;;;;;10.93;9.83;;;;;;;11.17;70.13;95632.78;5007751;28;20415;-69
2023/04/22 00:59:23;;;;;;;10.50;9.30;;;;;;;11.28;69.66;95636.53;5007868;28;20493;-69
2023/04/22 01:01:49;;;;;;;11.07;9.87;;;;;;;11.22;69.49;95629.88;5007608;28;20435;-68
2023/04/22 01:04:14;;;;;;;10.93;8.60;;;;;;;11.30;69.47;95632.03;5007739;28;20415;-69
2023/04/22 01:06:42;;;;;;;12.20;9.57;;;;;;;11.33;69.77;95645.00;5007522;28;20415;-70
2023/04/22 01:09:08;;;;;;;14.20;9.47;;;;;;;11.33;69.38;95642.34;5007674;28;20529;-68
2023/04/22 01:11:35;;;;;;;12.53;9.33;;;;;;;11.29;69.47;95640.84;5007589;28;20539;-68
2023/04/22 01:14:01;;;;;;;18.10;10.07;;;;;;;11.26;69.89;95641.03;5007494;28;20168;-69
2023/04/22 01:16:27;;;;;;;12.00;10.00;;;;;;;11.30;69.41;95645.19;5007118;28;20419;-68
2023/04/22 01:18:53;;;;;;;10.67;9.67;;;;;;;10.96;70.70;95642.75;5007622;28;20415;-69
2023/04/22 01:21:19;;;;;;;11.30;10.10;;;;;;;10.95;70.60;95648.06;5005945;28;20502;-69
2023/04/22 01:23:44;;;;;;;10.77;9.50;;;;;;;11.07;70.15;95642.09;5007224;28;20199;-70
2023/04/22 01:26:10;;;;;;;14.13;10.17;;;;;;;11.10;69.60;95651.56;5007054;28;20176;-68
2023/04/22 01:28:36;;;;;;;14.37;9.90;;;;;;;10.99;70.93;95645.19;5007357;28;20196;-66
2023/04/22 01:31:02;;;;;;;12.70;9.83;;;;;;;11.04;70.36;95647.53;5007208;28;20626;-68
2023/04/22 01:33:28;;;;;;;13.30;9.60;;;;;;;11.09;69.92;95645.50;5007115;28;20219;-67
2023/04/22 01:35:53;;;;;;;10.90;9.87;;;;;;;11.11;69.67;95648.88;5006851;28;20427;-68
2023/04/22 01:38:19;;;;;;;10.87;9.47;;;;;;;11.20;69.38;95644.88;5006844;28;20184;-67
2023/04/22 01:40:44;;;;;;;10.53;9.43;;;;;;;11.06;69.89;95648.28;5006848;28;20192;-68
2023/04/22 01:43:10;;;;;;;12.77;8.73;;;;;;;11.05;70.04;95643.97;5006675;28;20290;-69
2023/04/22 01:45:35;;;;;;;12.33;8.57;;;;;;;11.10;69.49;95655.06;5006256;28;20203;-69
2023/04/22 01:48:01;;;;;;;11.33;10.10;;;;;;;10.98;70.01;95646.13;5006667;28;20180;-68
2023/04/22 01:50:26;;;;;;;9.13;8.20;;;;;;;11.02;70.12;95650.25;5007140;28;20199;-68
2023/04/22 01:52:52;;;;;;;10.87;9.77;;;;;;;10.90;70.72;95645.69;5007016;28;20199;-68
2023/04/22 01:55:17;;;;;;;11.43;9.13;;;;;;;10.87;70.88;95645.06;5007077;28;20176;-68
2023/04/22 01:57:43;;;;;;;12.70;9.27;;;;;;;10.85;71.12;95644.28;5006756;28;20869;-68
2023/04/22 02:00:09;;;;;;;10.93;9.37;;;;;;;10.87;70.75;95650.28;5007037;28;20204;-69
2023/04/22 02:02:35;;;;;;;10.13;8.23;;;;;;;10.88;70.96;95646.72;5006721;28;20208;-68
2023/04/22 02:05:00;;;;;;;14.20;8.83;;;;;;;10.90;70.53;95639.63;5006201;28;20415;-68
2023/04/22 02:07:26;;;;;;;9.50;8.50;;;;;;;10.87;70.80;95638.00;5006567;28;20176;-69
2023/04/22 02:09:51;;;;;;;11.77;9.70;;;;;;;10.84;71.07;95632.91;5006858;28;20544;-69
2023/04/22 02:12:17;;;;;;;11.53;8.80;;;;;;;10.88;70.90;95628.34;5006853;28;20270;-69
2023/04/22 02:14:42;;;;;;;12.93;10.77;;;;;;;10.84;70.86;95637.31;5006800;28;20179;-68
2023/04/22 02:17:08;;;;;;;9.63;8.60;;;;;;;10.80;71.27;95641.91;5008130;28;20262;-69
2023/04/22 02:19:33;;;;;;;10.67;8.93;;;;;;;10.72;71.62;95644.97;5006839;28;20258;-68
2023/04/22 02:21:59;;;;;;;10.80;9.80;;;;;;;10.42;72.63;95644.06;5006495;28;20200;-68
2023/04/22 02:24:25;;;;;;;10.80;8.80;;;;;;;10.65;71.87;95646.22;5006616;28;20186;-68
2023/04/22 02:26:51;;;;;;;11.47;10.27;;;;;;;10.68;71.89;95640.00;5006095;28;20253;-68
2023/04/22 02:29:16;;;;;;;10.70;9.47;;;;;;;10.72;71.80;95647.59;5005120;28;20506;-68
2023/04/22 02:31:42;;;;;;;11.07;9.97;;;;;;;10.85;71.13;95650.38;5006386;28;20303;-68
2023/04/22 02:34:07;;;;;;;11.47;9.83;;;;;;;10.91;70.97;95639.50;5006572;28;20172;-67
2023/04/22 02:36:33;;;;;;;13.00;9.20;;;;;;;10.71;71.75;95640.66;5006398;28;20207;-69
2023/04/22 02:39:00;;;;;;;14.40;9.77;;;;;;;10.71;71.60;95642.44;5006567;28;20168;-68
2023/04/22 02:41:26;;;;;;;10.17;9.27;;;;;;;10.69;71.74;95645.13;5006361;28;20423;-68
2023/04/22 02:43:51;;;;;;;12.83;9.97;;;;;;;10.75;71.81;95642.19;5006418;28;20504;-69
2023/04/22 02:46:17;;;;;;;13.83;9.20;;;;;;;10.75;72.06;95636.94;5006293;28;20246;-69
2023/04/22 02:48:42;;;;;;;10.67;9.67;;;;;;;10.59;72.60;95625.59;5006398;28;20176;-69
2023/04/22 02:51:08;;;;;;;10.33;9.30;;;;;;;10.51;72.98;95633.03;5005132;28;20168;-69
2023/04/22 02:53:33;;;;;;;10.53;8.87;;;;;;;10.66;72.35;95619.09;5006163;28;20184;-69
2023/04/22 02:55:59;;;;;;;11.30;9.53;;;;;;;10.72;72.03;95616.09;5007435;28;20230;-69
2023/04/22 02:58:25;;;;;;;14.00;9.43;;;;;;;10.76;72.12;95612.38;5010756;28;20177;-69
2023/04/22 03:00:51;;;;;;;12.63;9.37;;;;;;;10.72;71.78;95605.59;5013439;28;20222;-69
2023/04/22 03:03:16;;;;;;;13.13;9.77;;;;;;;10.64;71.80;95612.22;5010911;28;20868;-69
2023/04/22 03:05:42;;;;;;;12.80;8.90;;;;;;;10.56;72.45;95625.78;5009864;28;20263;-69
2023/04/22 03:08:07;;;;;;;9.63;8.73;;;;;;;10.51;72.34;95626.03;5009775;28;20176;-68
2023/04/22 03:10:33;;;;;;;13.17;8.83;;;;;;;10.23;73.12;95618.84;5009728;28;20214;-68
2023/04/22 03:12:58;;;;;;;11.53;9.20;;;;;;;10.15;73.76;95626.25;5009723;28;20649;-69
2023/04/22 03:15:24;;;;;;;11.63;9.10;;;;;;;10.28;73.15;95624.69;5009517;28;20194;-68
2023/04/22 03:17:49;;;;;;;14.70;9.83;;;;;;;10.51;72.38;95627.81;5009572;28;20246;-69
2023/04/22 03:20:15;;;;;;;10.20;8.50;;;;;;;10.51;72.29;95631.28;5009652;28;20174;-69
2023/04/22 03:22:44;;;;;;;8.90;8.00;;;;;;;10.67;71.59;95633.03;5009537;28;20287;-69
2023/04/22 03:25:12;;;;;;;15.57;10.03;;;;;;;10.65;71.98;95633.13;5009417;28;20407;-68
2023/04/22 03:27:37;;;;;;;13.33;9.30;;;;;;;10.67;71.70;95625.16;5009162;28;20446;-68
2023/04/22 03:30:04;;;;;;;10.23;8.50;;;;;;;10.63;71.83;95624.50;5009543;28;20768;-67
2023/04/22 03:32:29;;;;;;;10.10;8.83;;;;;;;10.69;71.66;95629.41;5009109;28;20995;-68
2023/04/22 03:34:55;;;;;;;14.00;10.90;;;;;;;10.60;71.78;95632.53;5009406;28;20434;-67
2023/04/22 03:37:20;;;;;;;19.10;9.47;;;;;;;10.55;72.05;95630.16;5009503;28;20176;-70
2023/04/22 03:39:46;;;;;;;10.33;9.10;;;;;;;10.68;71.99;95625.09;5009146;28;20642;-69
2023/04/22 03:42:13;;;;;;;9.60;8.60;;;;;;;10.67;72.20;95628.63;5009407;28;20771;-68
2023/04/22 03:44:38;;;;;;;9.43;8.30;;;;;;;10.59;72.18;95631.69;5009329;28;20868;-67
2023/04/22 03:47:04;;;;;;;14.03;8.60;;;;;;;10.57;72.28;95630.94;5009003;28;20416;-68
2023/04/22 03:49:30;;;;;;;10.07;9.07;;;;;;;10.53;72.33;95631.19;5009351;28;20175;-68
2023/04/22 03:51:55;;;;;;;21.40;9.30;;;;;;;10.44;73.26;95631.69;5008945;28;20184;-68
2023/04/22 03:54:21;;;;;;;11.03;8.47;;;;;;;10.54;72.29;95627.66;5008616;28;20270;-68
2023/04/22 03:56:46;;;;;;;15.13;10.50;;;;;;;10.54;72.29;95630.28;5008594;28;20225;-69
2023/04/22 03:59:12;;;;;;;9.40;7.90;;;;;;;10.61;71.91;95629.00;5008772;28;20228;-68
2023/04/22 04:01:37;;;;;;;10.10;8.07;;;;;;;10.50;72.17;95629.59;5008672;28;20207;-68
2023/04/22 04:04:03;;;;;;;8.80;7.90;;;;;;;10.44;72.46;95623.81;5007565;28;20624;-68
2023/04/22 04:06:28;;;;;;;9.23;8.33;;;;;;;10.33;72.96;95619.19;5008482;28;20764;-68
2023/04/22 04:08:54;;;;;;;12.10;9.00;;;;;;;10.27;72.85;95616.88;5008541;28;20176;-69
2023/04/22 04:11:19;;;;;;;12.97;9.60;;;;;;;10.17;73.47;95629.66;5008483;28;20172;-69
2023/04/22 04:13:45;;;;;;;11.47;10.27;;;;;;;10.40;72.41;95623.16;5008524;28;20525;-68
2023/04/22 04:16:10;;;;;;;14.07;9.37;;;;;;;10.46;72.31;95629.84;5008192;28;20175;-69
2023/04/22 04:18:37;;;;;;;16.13;9.43;;;;;;;10.48;72.27;95633.22;5008765;28;20195;-68
2023/04/22 04:21:03;;;;;;;15.17;10.07;;;;;;;10.58;71.90;95632.66;5008813;28;20168;-69
2023/04/22 04:23:28;;;;;;;14.03;10.10;;;;;;;10.67;71.56;95636.50;5008200;28;21016;-68
2023/04/22 04:25:54;;;;;;;13.20;9.70;;;;;;;10.57;72.01;95644.06;5008046;28;20199;-69
2023/04/22 04:28:20;;;;;;;12.17;9.23;;;;;;;10.58;71.79;95642.25;5005619;28;20233;-68
2023/04/22 04:30:46;;;;;;;18.77;10.00;;;;;;;10.53;72.08;95637.28;5002732;28;20234;-69
2023/04/22 04:33:12;;;;;;;15.13;9.97;;;;;;;10.42;72.30;95638.81;5005596;28;21308;-69
2023/04/22 04:35:37;;;;;;;13.03;10.43;;;;;;;10.48;72.38;95643.72;5008640;28;20231;-69
2023/04/22 04:38:04;;;;;;;18.50;11.77;;;;;;;10.62;71.44;95633.31;5008785;28;20171;-69
2023/04/22 04:40:30;;;;;;;26.90;10.87;;;;;;;10.68;71.28;95640.84;5009102;28;20188;-69
2023/04/22 04:42:56;;;;;;;23.60;10.90;;;;;;;10.65;71.06;95646.22;5009793;28;20490;-69
2023/04/22 04:45:25;;;;;;;13.47;11.00;;;;;;;10.47;71.77;95650.75;5010045;28;20180;-69
2023/04/22 04:47:51;;;;;;;13.00;11.33;;;;;;;10.53;71.30;95653.00;5008549;28;20218;-69
2023/04/22 04:50:18;;;;;;;12.30;9.13;;;;;;;10.50;71.39;95645.31;5006656;28;20897;-69
2023/04/22 04:52:45;;;;;;;13.67;10.87;;;;;;;10.63;70.80;95648.13;5007808;28;20427;-69
2023/04/22 04:55:10;;;;;;;13.30;9.40;;;;;;;10.21;73.09;95648.69;5007897;28;20506;-69
2023/04/22 04:57:35;;;;;;;16.03;10.17;;;;;;;9.92;74.22;95651.94;5007661;28;20499;-69
2023/04/22 05:00:02;;;;;;;15.40;9.13;;;;;;;9.79;74.79;95643.03;5008000;28;20175;-69
2023/04/22 05:02:27;;;;;;;11.30;9.70;;;;;;;9.91;74.49;95642.38;5007537;28;20200;-68
2023/04/22 05:04:52;;;;;;;13.90;9.43;;;;;;;9.61;75.40;95644.00;5007785;28;20473;-68
2023/04/22 05:07:18;;;;;;;17.90;10.03;;;;;;;9.92;74.42;95645.84;5007443;28;20176;-68
2023/04/22 05:09:43;;;;;;;11.30;8.60;;;;;;;10.17;72.85;95645.38;5007679;28;20191;-69
2023/04/22 05:12:09;;;;;;;14.17;9.93;;;;;;;10.21;73.08;95641.66;5007378;28;20666;-69
2023/04/22 05:14:34;;;;;;;23.93;9.47;;;;;;;10.27;72.38;95643.09;5007695;28;20172;-68
2023/04/22 05:17:00;;;;;;;14.47;8.40;;;;;;;10.34;72.13;95640.06;5007457;28;20168;-68
2023/04/22 05:19:25;;;;;;;8.93;8.13;;;;;;;10.03;72.92;95645.28;5006765;28;20168;-68
2023/04/22 05:21:51;;;;;;;11.23;10.03;;;;;;;9.93;72.99;95639.69;5007395;28;20222;-68
2023/04/22 05:24:16;;;;;;;10.80;9.20;;;;;;;10.09;72.93;95652.81;5007356;28;20652;-69
2023/04/22 05:26:42;;;;;;;11.97;10.43;;;;;;;10.14;73.05;95648.16;5007235;28;20242;-69
2023/04/22 05:29:07;;;;;;;14.97;10.27;;;;;;;10.30;72.30;95650.81;5007493;28;20180;-69
2023/04/22 05:31:32;;;;;;;20.93;12.37;;;;;;;10.21;72.46;95654.78;4996551;28;20533;-69
2023/04/22 05:33:58;;;;;;;17.33;9.83;;;;;;;10.65;70.83;95661.97;4987866;28;20227;-68
2023/04/22 05:36:23;;;;;;;48.57;15.20;;;;;;;10.70;70.63;95659.97;4987397;28;20179;-69
2023/04/22 05:38:49;;;;;;;22.43;11.70;;;;;;;10.69;70.60;95663.50;4987629;28;20483;-69
2023/04/22 05:41:15;;;;;;;16.90;10.70;;;;;;;10.64;70.86;95665.56;4987611;28;20192;-69
2023/04/22 05:43:41;;;;;;;14.03;10.47;;;;;;;10.55;71.27;95666.06;4987413;28;20216;-69
2023/04/22 05:46:06;;;;;;;16.40;11.03;;;;;;;10.48;71.63;95665.53;4987318;28;20480;-68
2023/04/22 05:48:31;;;;;;;17.13;10.30;;;;;;;10.76;71.50;95670.09;4987530;28;20230;-69
2023/04/22 05:50:57;;;;;;;17.83;10.40;;;;;;;10.90;71.00;95671.13;4987584;28;20180;-69
2023/04/22 05:53:22;;;;;;;17.70;9.80;;;;;;;11.09;70.35;95669.13;4987233;28;20189;-68
2023/04/22 05:55:48;;;;;;;12.93;11.63;;;;;;;11.15;69.95;95666.16;4987322;28;20180;-68
2023/04/22 05:58:13;;;;;;;18.00;9.80;;;;;;;11.34;69.60;95671.19;4987278;28;20597;-68
2023/04/22 06:00:39;;;;;;;24.10;14.43;;;;;;;11.22;69.42;95666.66;4987268;28;20183;-69
2023/04/22 06:03:04;;;;;;;31.17;11.90;;;;;;;11.40;69.08;95668.16;4987090;28;20586;-69
2023/04/22 06:05:29;;;;;;;25.27;12.23;;;;;;;11.58;68.93;95668.88;4987363;28;20184;-68
2023/04/22 06:07:55;;;;;;;22.73;11.47;;;;;;;11.52;68.73;95669.22;4987099;28;20176;-68
2023/04/22 06:10:20;;;;;;;12.70;10.57;;;;;;;11.26;69.71;95667.28;4987334;28;20199;-69
2023/04/22 06:12:46;;;;;;;10.97;9.90;;;;;;;10.83;70.59;95667.16;4987662;28;20244;-68
2023/04/22 06:15:11;;;;;;;13.43;11.00;;;;;;;10.46;71.75;95671.81;5002941;28;20787;-69
2023/04/22 06:17:36;;;;;;;10.43;9.43;;;;;;;10.57;71.63;95682.56;5006354;28;20218;-68
2023/04/22 06:20:02;;;;;;;15.07;10.77;;;;;;;10.56;71.91;95668.59;5007608;28;20172;-69
2023/04/22 06:22:27;;;;;;;25.00;13.40;;;;;;;11.08;70.17;95674.44;5006307;28;20751;-68
2023/04/22 06:24:53;;;;;;;27.23;12.87;;;;;;;11.25;70.05;95682.22;5006802;28;20176;-69
2023/04/22 06:27:18;;;;;;;21.30;11.80;;;;;;;11.40;68.51;95689.19;5005217;28;20195;-69
2023/04/22 06:29:44;;;;;;;14.43;11.17;;;;;;;11.60;68.46;95689.81;4999206;28;20271;-68
2023/04/22 06:32:09;;;;;;;16.17;10.90;;;;;;;11.78;67.36;95695.75;4994590;28;20189;-69
2023/04/22 06:34:37;;;;;;;12.40;9.67;;;;;;;11.64;67.28;95688.69;5006778;28;20180;-69
2023/04/22 06:37:03;;;;;;;11.60;10.60;;;;;;;11.57;67.97;95690.81;5009849;28;20254;-70
2023/04/22 06:39:28;;;;;;;11.13;10.00;;;;;;;11.61;68.18;95694.97;5010502;28;20518;-71
2023/04/22 06:41:53;;;;;;;15.13;10.20;;;;;;;11.85;67.13;95697.06;5010568;28;20231;-68
2023/04/22 06:44:19;;;;;;;12.30;11.10;;;;;;;12.13;66.04;95679.66;5010395;28;20255;-68
2023/04/22 06:46:45;;;;;;;15.67;10.80;;;;;;;12.07;66.56;95686.97;5008914;28;20206;-69
2023/04/22 06:49:10;;;;;;;12.40;11.10;;;;;;;12.14;66.52;95687.47;5010060;28;20172;-69
2023/04/22 06:51:36;;;;;;;17.33;11.77;;;;;;;12.12;66.08;95684.06;5010115;28;20483;-69
2023/04/22 06:54:01;;;;;;;13.10;11.30;;;;;;;12.43;65.38;95690.91;5010086;28;20169;-68
2023/04/22 06:56:27;;;;;;;36.73;12.50;;;;;;;12.42;65.10;95685.72;5009851;28;20176;-68
2023/04/22 06:58:52;;;;;;;10.63;9.53;;;;;;;12.66;64.06;95686.81;5004634;28;20180;-68
2023/04/22 07:01:18;;;;;;;10.97;9.30;;;;;;;12.83;63.03;95684.91;5011105;28;20179;-69
2023/04/22 07:03:43;;;;;;;9.90;9.00;;;;;;;13.02;63.21;95684.56;5008414;28;20751;-70
2023/04/22 07:06:09;;;;;;;13.63;9.90;;;;;;;13.15;62.56;95677.53;5009382;28;20178;-69
2023/04/22 07:08:34;;;;;;;16.00;10.33;;;;;;;13.44;61.95;95674.78;5009264;28;20641;-69
2023/04/22 07:11:00;;;;;;;13.50;10.40;;;;;;;13.57;61.55;95675.66;5009466;28;20181;-69
2023/04/22 07:13:26;;;;;;;11.80;9.50;;;;;;;13.80;60.85;95679.38;5009732;28;20286;-69
2023/04/22 07:15:51;;;;;;;11.83;9.27;;;;;;;13.79;60.06;95675.03;5009176;28;20233;-70
2023/04/22 07:18:17;;;;;;;11.67;8.93;;;;;;;14.10;59.71;95681.69;5009576;28;20403;-71
2023/04/22 07:20:42;;;;;;;10.60;9.50;;;;;;;14.11;58.68;95672.81;5009253;28;20789;-69
2023/04/22 07:23:08;;;;;;;11.80;8.50;;;;;;;14.05;58.52;95675.88;5009266;28;20844;-69
2023/04/22 07:25:33;;;;;;;10.67;9.57;;;;;;;14.42;57.72;95668.03;5009215;28;20259;-70
2023/04/22 07:27:59;;;;;;;11.57;7.97;;;;;;;14.72;55.42;95672.13;5006319;28;20301;-70
2023/04/22 07:30:24;;;;;;;15.17;9.07;;;;;;;15.37;54.32;95671.72;5010142;28;20199;-69
2023/04/22 07:32:51;;;;;;;8.60;7.03;;;;;;;15.92;53.20;95660.56;5001753;28;20584;-69
2023/04/22 07:35:17;;;;;;;10.70;9.03;;;;;;;15.77;53.09;95673.19;5009212;28;20649;-68
2023/04/22 07:37:42;;;;;;;9.47;8.47;;;;;;;16.36;51.65;95657.13;5008717;28;20548;-69
2023/04/22 07:40:10;;;;;;;17.27;9.30;;;;;;;16.49;51.00;95665.78;5009301;28;20918;-71
2023/04/22 07:42:37;;;;;;;29.03;10.93;;;;;;;16.61;50.71;95668.44;5008365;28;20283;-70
2023/04/22 07:45:03;;;;;;;11.10;8.70;;;;;;;16.72;50.20;95658.66;5009441;28;20446;-69
2023/04/22 07:47:29;;;;;;;9.63;7.90;;;;;;;16.55;49.69;95659.16;5008777;28;20419;-69
2023/04/22 07:49:54;;;;;;;16.30;8.17;;;;;;;16.66;49.88;95656.50;5009414;28;20175;-68
2023/04/22 07:52:20;;;;;;;10.73;7.97;;;;;;;16.89;49.95;95648.50;5009124;28;20215;-68
2023/04/22 07:54:45;;;;;;;11.50;8.07;;;;;;;16.59;48.74;95660.59;5009145;28;20183;-69
2023/04/22 07:57:28;;;;;;;9.20;7.67;;;;;;;16.54;49.42;95652.19;5009123;28;20626;-69
2023/04/22 07:59:55;;;;;;;9.93;7.70;;;;;;;16.51;48.62;95655.06;5009306;28;20318;-69
2023/04/22 08:02:21;;;;;;;13.77;7.20;;;;;;;16.70;48.60;95655.28;5009173;28;20458;-69
2023/04/22 08:04:47;;;;;;;14.70;7.57;;;;;;;16.93;47.84;95658.75;5008971;28;20414;-68
2023/04/22 08:07:14;;;;;;;8.20;7.30;;;;;;;17.10;47.09;95654.75;5008861;28;20411;-68
2023/04/22 08:09:39;;;;;;;8.10;6.90;;;;;;;17.09;47.34;95652.22;5008751;28;20176;-68
2023/04/22 08:12:05;;;;;;;13.83;6.70;;;;;;;16.69;48.06;95648.28;5009079;28;20430;-68
2023/04/22 08:14:30;;;;;;;10.30;7.23;;;;;;;16.39;49.16;95648.91;5008774;28;20172;-70
2023/04/22 08:16:56;;;;;;;17.80;7.70;;;;;;;16.68;48.44;95651.09;5008758;28;20191;-69
2023/04/22 08:19:21;;;;;;;12.53;6.13;;;;;;;16.84;47.83;95638.31;5009063;28;20515;-68
2023/04/22 08:21:47;;;;;;;10.90;6.33;;;;;;;16.68;47.81;95635.19;5008686;28;20192;-68
2023/04/22 08:24:13;;;;;;;7.03;5.27;;;;;;;17.06;45.81;95641.88;5007652;28;20187;-68
2023/04/22 08:26:39;;;;;;;7.47;4.50;;;;;;;16.60;44.80;95629.66;5008491;28;20174;-70
2023/04/22 08:29:05;;;;;;;7.33;3.90;;;;;;;16.47;44.41;95635.94;5007569;28;20198;-69
2023/04/22 08:31:30;;;;;;;3.17;2.53;;;;;;;16.12;42.78;95638.72;4998548;28;20420;-69
2023/04/22 08:33:56;;;;;;;4.80;3.67;;;;;;;16.72;41.91;95637.47;4989083;28;20196;-69
2023/04/22 08:36:24;;;;;;;6.20;3.30;;;;;;;16.20;42.04;95644.22;4988833;28;20259;-69
2023/04/22 08:38:50;;;;;;;9.63;4.30;;;;;;;16.67;42.12;95646.72;4989009;28;20172;-68
2023/04/22 08:41:17;;;;;;;5.97;3.90;;;;;;;16.80;41.85;95647.47;4988809;28;20834;-69
2023/04/22 08:43:44;;;;;;;9.10;3.80;;;;;;;16.78;41.93;95648.53;4988737;28;20197;-69
2023/04/22 08:46:09;;;;;;;15.27;4.43;;;;;;;16.54;43.13;95648.69;4988249;28;20412;-68
2023/04/22 08:48:36;;;;;;;18.13;4.40;;;;;;;16.25;45.07;95657.13;4988887;28;20488;-69
2023/04/22 08:51:02;;;;;;;5.13;3.90;;;;;;;16.61;44.13;95648.06;4988677;28;20168;-69
2023/04/22 08:53:27;;;;;;;11.10;5.00;;;;;;;16.83;44.35;95656.97;4988675;28;20424;-69
2023/04/22 08:55:55;;;;;;;13.00;4.40;;;;;;;17.04;44.10;95662.34;4988413;28;20777;-70
2023/04/22 08:58:22;;;;;;;8.70;5.20;;;;;;;17.18;44.41;95659.41;4988842;28;20192;-69
2023/04/22 09:00:47;;;;;;;8.73;4.37;;;;;;;17.23;44.39;95654.56;4988643;28;20508;-69
2023/04/22 09:03:14;;;;;;;7.10;4.27;;;;;;;17.06;44.58;95653.31;4988492;28;20856;-69
2023/04/22 09:05:41;;;;;;;19.37;5.10;;;;;;;17.46;44.10;95649.19;4988062;28;20183;-69
2023/04/22 09:08:09;;;;;;;5.73;4.27;;;;;;;17.38;44.16;95648.97;4987973;28;20412;-69
2023/04/22 09:10:38;;;;;;;13.63;4.37;;;;;;;17.39;44.70;95635.59;4988166;28;20415;-68
2023/04/22 09:13:05;;;;;;;18.17;5.50;;;;;;;17.45;44.39;95643.00;4988067;28;20424;-68
2023/04/22 09:15:31;;;;;;;30.10;6.50;;;;;;;17.26;45.65;95638.38;4988005;28;20427;-68
2023/04/22 09:17:57;;;;;;;11.10;4.90;;;;;;;17.37;45.28;95634.88;4988124;28;20835;-70
2023/04/22 09:20:27;;;;;;;6.50;4.00;;;;;;;17.61;44.67;95637.28;4988135;28;20412;-69
2023/04/22 09:22:55;;;;;;;4.03;3.60;;;;;;;17.56;43.96;95634.16;4988003;28;20460;-68
2023/04/22 09:25:23;;;;;;;7.20;3.80;;;;;;;17.36;45.36;95638.47;4988213;28;20490;-70
2023/04/22 09:27:50;;;;;;;5.17;4.37;;;;;;;17.75;44.52;95636.94;4987691;28;20412;-69
2023/04/22 09:30:18;;;;;;;4.73;3.97;;;;;;;18.00;43.25;95632.25;4988094;28;20409;-69
2023/04/22 09:32:54;;;;;;;4.40;3.47;;;;;;;17.86;43.77;95637.88;5007539;28;20531;-69
2023/04/22 09:35:39;;;;;;;4.20;3.50;;;;;;;18.00;44.27;95624.28;5007743;28;20578;-70
2023/04/22 09:38:07;;;;;;;4.10;3.00;;;;;;;18.03;44.17;95629.31;5007571;28;20400;-70
2023/04/22 09:40:34;;;;;;;4.90;3.63;;;;;;;18.06;44.06;95626.38;5007503;28;20427;-69
2023/04/22 09:43:02;;;;;;;11.30;4.40;;;;;;;17.71;44.55;95627.56;5007436;28;20546;-69
2023/04/22 09:45:29;;;;;;;15.80;5.43;;;;;;;17.52;45.43;95635.38;5008541;28;21261;-69
2023/04/22 09:47:56;;;;;;;11.30;4.17;;;;;;;17.38;46.49;95635.69;5008661;28;20415;-70
2023/04/22 09:50:26;;;;;;;8.63;4.63;;;;;;;17.56;45.71;95624.38;5022669;28;20841;-69
2023/04/22 09:52:58;;;;;;;5.13;3.23;;;;;;;17.80;45.17;95627.75;5022380;28;20443;-68
2023/04/22 09:55:26;;;;;;;6.20;3.40;;;;;;;17.72;45.07;95623.09;5007748;28;20481;-67
2023/04/22 09:57:56;;;;;;;4.60;3.33;;;;;;;17.72;44.64;95625.75;5007314;28;20461;-68
2023/04/22 10:00:26;;;;;;;4.30;3.13;;;;;;;17.71;45.00;95616.09;5007219;28;20407;-68
2023/04/22 10:02:51;;;;;;;5.23;3.40;;;;;;;18.09;44.15;95607.53;5007351;28;20463;-68
2023/04/22 10:05:17;;;;;;;8.73;3.50;;;;;;;18.39;43.43;95612.00;5006755;28;20437;-69
2023/04/22 10:07:44;;;;;;;3.70;3.33;;;;;;;18.41;43.30;95604.72;5006796;28;20176;-68
2023/04/22 10:10:09;;;;;;;6.77;3.33;;;;;;;18.40;43.04;95605.72;5006855;28;20176;-69
2023/04/22 10:12:36;;;;;;;4.07;2.80;;;;;;;18.67;42.57;95593.63;5006905;28;20432;-69
2023/04/22 10:15:03;;;;;;;12.63;3.93;;;;;;;18.71;42.65;95602.13;5006964;28;20168;-69
2023/04/22 10:17:32;;;;;;;8.00;4.30;;;;;;;18.70;41.92;95600.47;5006580;28;20457;-69
2023/04/22 10:20:02;;;;;;;8.67;4.07;;;;;;;19.07;41.47;95590.06;5006998;28;21167;-68
2023/04/22 10:22:28;;;;;;;3.70;3.13;;;;;;;19.05;41.49;95597.34;5006872;28;20466;-70
2023/04/22 10:24:56;;;;;;;33.50;6.17;;;;;;;18.94;41.40;95592.97;5007064;28;20447;-70
2023/04/22 10:27:22;;;;;;;11.03;4.83;;;;;;;19.00;41.38;95594.25;5006959;28;20411;-70
2023/04/22 10:29:47;;;;;;;7.00;4.07;;;;;;;18.76;42.11;95584.84;5007082;28;20430;-70
2023/04/22 10:32:16;;;;;;;5.07;2.90;;;;;;;18.44;42.37;95585.03;5007033;28;20259;-68
2023/04/22 10:34:42;;;;;;;4.03;2.70;;;;;;;18.37;42.66;95587.38;5006949;28;20188;-70
2023/04/22 10:37:20;;;;;;;7.00;3.23;;;;;;;18.55;41.86;95589.41;5006607;28;20581;-69
2023/04/22 10:40:10;;;;;;;5.80;2.80;;;;;;;18.72;40.76;95580.75;5006748;28;20430;-69
2023/04/22 10:42:38;;;;;;;7.83;2.90;;;;;;;19.07;40.23;95582.09;5006587;28;20838;-69
2023/04/22 10:45:04;;;;;;;7.73;2.60;;;;;;;19.17;40.18;95576.75;5006650;28;20403;-69
2023/04/22 10:47:31;;;;;;;5.10;2.70;;;;;;;19.43;39.51;95580.50;5006323;28;21092;-68
2023/04/22 10:50:26;;;;;;;20.47;4.17;;;;;;;19.46;39.59;95574.06;5006751;28;20403;-68
2023/04/22 10:52:55;;;;;;;20.17;4.00;;;;;;;19.53;39.75;95569.03;5008923;28;20450;-71
2023/04/22 10:55:21;;;;;;;4.63;2.83;;;;;;;19.00;41.19;95572.97;5007085;28;20807;-72
2023/04/22 10:57:49;;;;;;;3.67;2.80;;;;;;;18.73;41.82;95570.94;5006791;28;20935;-70
2023/04/22 11:00:31;;;;;;;6.50;2.50;;;;;;;18.59;42.96;95562.41;5006792;28;20523;-70
2023/04/22 11:02:56;;;;;;;6.97;3.40;;;;;;;18.54;44.13;95566.44;5006947;28;20458;-69
2023/04/22 11:05:26;;;;;;;26.93;6.37;;;;;;;18.72;44.16;95567.47;5007386;28;20498;-69
2023/04/22 11:08:00;;;;;;;15.67;5.57;;;;;;;18.83;43.86;95570.03;5006710;28;20506;-70
2023/04/22 11:10:36;;;;;;;3.90;3.07;;;;;;;19.18;43.55;95557.16;5007061;28;20764;-69
2023/04/22 11:13:02;;;;;;;5.27;3.07;;;;;;;19.51;42.82;95555.00;5007629;28;20683;-70
2023/04/22 11:15:30;;;;;;;10.37;3.43;;;;;;;19.75;42.31;95551.91;5007105;28;20403;-69
2023/04/22 11:17:56;;;;;;;10.87;3.43;;;;;;;19.69;42.67;95561.31;5008337;28;20411;-70
2023/04/22 11:20:22;;;;;;;12.63;3.17;;;;;;;19.44;43.41;95558.25;5010728;28;20407;-71